Currently 50°F in French Valley, California, USA
50°F
51°F / 50°F
calm
0.11"
Tuesday, April 7, 2020 3:52 AM PDT

French Valley, California Weather Summary
Last 36 Hours

Temperature Winds Hourly Humidity Dewpoint
Time Report Norm Report Norm Max Gusts Precip. Rpt. Norm Rpt. Norm Pressure
1,3Tue 03:52 AM  50.2°F  51°F  calm  1 mph  none  0.00"  100%  86%  50°F  47°F  30.11"
Tue 03:00 AM  50.6°F  52°F  calm  1 mph  none  0.01"  100%  86%  51°F  48°F  30.13"
Tue 02:00 AM  50.6°F  52°F  calm  1 mph  none  0.01"  100%  85%  51°F  48°F  30.13"
Tue 01:00 AM  50.7°F  53°F  calm  1 mph  none  0.09"  100%  84%  51°F  48°F  30.13"
2Tue 12:07 AM  50.9°F  54°F  calm  2 mph  none  ----  100%  83%  51°F  49°F  30.12"
Tue 12:00 AM  50.9°F  54°F  calm  2 mph  9 mph  0.19"  100%  83%  51°F  49°F  30.12"
Mon 11:00 PM  51.5°F  55°F  calm  2 mph  7 mph  0.20"  100%  81%  51°F  49°F  30.11"
Mon 10:00 PM  51.8°F  56°F  calm  3 mph  3 mph  0.17"  100%  78%  52°F  50°F  30.09"
Mon 09:00 PM  51.7°F  58°F  2 mph SE  4 mph  8 mph  0.17"  100%  75%  52°F  50°F  30.08"
Mon 08:00 PM  51.8°F  60°F  4 mph S  4 mph  10 mph  0.10"  100%  69%  52°F  50°F  30.06"
Mon 07:00 PM  52.4°F  64°F  4 mph S  5 mph  14 mph  0.22"  100%  61%  52°F  50°F  30.05"
Mon 06:00 PM  53.1°F  67°F  3 mph S  7 mph  11 mph  0.02"  99%  54%  53°F  49°F  30.04"
Mon 05:00 PM  53.2°F  70°F  5 mph S  8 mph  17 mph  0.06"  99%  48%  53°F  48°F  30.04"
Mon 04:00 PM  53.6°F  71°F  8 mph SW  7 mph  22 mph  0.03"  99%  45%  53°F  48°F  30.03"
Mon 03:00 PM  53.7°F  72°F  12 mph S  6 mph  21 mph  0.03"  99%  42%  53°F  47°F  30.03"
Mon 02:00 PM  54.3°F  71°F  7 mph S  6 mph  23 mph  0.00"  98%  42%  54°F  46°F  30.03"
Mon 01:00 PM  53.9°F  70°F  10 mph S  5 mph  19 mph  0.04"  99%  44%  54°F  47°F  30.03"
Mon 12:00 PM  53.5°F  68°F  14 mph S  5 mph  24 mph  0.04"  99%  48%  53°F  47°F  30.03"
Mon 11:00 AM  52.8°F  65°F  14 mph S  4 mph  20 mph  0.02"  99%  55%  53°F  48°F  30.02"
Mon 10:00 AM  51.7°F  61°F  9 mph S  3 mph  21 mph  0.02"  99%  63%  51°F  48°F  30.02"
Mon 09:00 AM  51.0°F  57°F  8 mph SE  2 mph  18 mph  0.02"  100%  75%  51°F  49°F  30.00"
Mon 08:00 AM  50.5°F  53°F  10 mph S  2 mph  16 mph  0.02"  100%  84%  50°F  48°F  30.00"
Mon 07:00 AM  50.3°F  50°F  8 mph S  1 mph  18 mph  0.01"  100%  87%  50°F  46°F  29.98"
Mon 06:00 AM  50.2°F  50°F  9 mph SE  1 mph  15 mph  0.02"  100%  87%  50°F  46°F  29.98"
Mon 05:00 AM  50.5°F  51°F  7 mph S  1 mph  13 mph  0.00"  100%  86%  50°F  47°F  29.98"
Mon 04:00 AM  50.3°F  51°F  7 mph S  1 mph  17 mph  0.07"  100%  86%  50°F  47°F  29.98"
Mon 03:00 AM  50.5°F  52°F  7 mph S  1 mph  13 mph  0.03"  100%  86%  50°F  47°F  29.97"
Mon 02:00 AM  50.2°F  52°F  7 mph S  1 mph  12 mph  0.01"  99%  85%  50°F  48°F  29.98"
Mon 01:00 AM  51.3°F  53°F  5 mph SE  1 mph  10 mph  0.00"  98%  83%  51°F  48°F  29.99"
Mon 12:00 AM  52.0°F  54°F  1 mph S  2 mph  9 mph  0.00"  96%  82%  51°F  49°F  30.00"
Sun 11:00 PM  51.9°F  55°F  4 mph S  2 mph  9 mph  0.00"  96%  80%  51°F  49°F  30.00"
Sun 10:00 PM  52.2°F  56°F  6 mph S  2 mph  11 mph  0.00"  93%  78%  50°F  49°F  29.99"
Sun 09:00 PM  53.1°F  58°F  4 mph S  4 mph  10 mph  0.00"  93%  74%  51°F  50°F  29.97"
Sun 08:00 PM  53.6°F  60°F  5 mph S  4 mph  12 mph  0.00"  90%  69%  51°F  50°F  29.95"
Sun 07:00 PM  54.6°F  64°F  8 mph S  5 mph  13 mph  0.00"  87%  61%  51°F  50°F  29.95"
Sun 06:00 PM  56.1°F  67°F  8 mph SW  7 mph  15 mph  0.00"  84%  53%  51°F  49°F  29.95"
Sun 05:00 PM  56.9°F  70°F  8 mph S  8 mph  15 mph  0.00"  83%  48%  52°F  48°F  29.94"
Sun 04:00 PM  58.1°F  71°F  9 mph SW  7 mph  16 mph  0.00"  80%  44%  52°F  48°F  29.94"

  1. Current weather data. No green row appears if the current weather data is also the high or low for the current day.
  2. High temperature for the current day.
  3. Low temperature for the current day.

The French Valley, California weather pages are a service of WeatherCurrents. French Valley is located in southwestern Riverside County, California, north of Temecula, east of Murrieta, and south of Winchester. French Valley is bordered by Lake Skinner.
Copyright ©2020  WeatherCurrents. All rights reserved. - Submit questions and comments - Privacy Policy

This page automatically refreshes every 10 minutes.